sensor_id;sensor_type;location;lat;lon;timestamp;pressure;altitude;pressure_sealevel;temperature;humidity
52745;BME280;38637;49.984;20.426;2023-03-25T00:00:31;98236.34;;;14.25;68.09
52745;BME280;38637;49.984;20.426;2023-03-25T00:02:56;98242.00;;;14.29;68.10
52745;BME280;38637;49.984;20.426;2023-03-25T00:05:23;98229.72;;;14.26;67.82
52745;BME280;38637;49.984;20.426;2023-03-25T00:07:50;98240.56;;;14.31;68.29
52745;BME280;38637;49.984;20.426;2023-03-25T00:10:16;98238.63;;;14.32;68.39
52745;BME280;38637;49.984;20.426;2023-03-25T00:12:41;98237.66;;;14.28;68.46
52745;BME280;38637;49.984;20.426;2023-03-25T00:15:08;98239.59;;;14.27;68.61
52745;BME280;38637;49.984;20.426;2023-03-25T00:17:33;98223.34;;;14.17;68.76
52745;BME280;38637;49.984;20.426;2023-03-25T00:20:01;98240.22;;;14.24;68.89
52745;BME280;38637;49.984;20.426;2023-03-25T00:22:29;98246.34;;;14.21;69.30
52745;BME280;38637;49.984;20.426;2023-03-25T00:24:54;98224.13;;;14.09;69.23
52745;BME280;38637;49.984;20.426;2023-03-25T00:27:19;98234.66;;;14.15;69.36
52745;BME280;38637;49.984;20.426;2023-03-25T00:29:45;98221.84;;;14.02;69.42
52745;BME280;38637;49.984;20.426;2023-03-25T00:32:12;98206.56;;;13.87;69.28
52745;BME280;38637;49.984;20.426;2023-03-25T00:34:37;98215.16;;;13.94;69.49
52745;BME280;38637;49.984;20.426;2023-03-25T00:37:12;98232.66;;;14.07;69.72
52745;BME280;38637;49.984;20.426;2023-03-25T00:39:42;98213.72;;;13.97;69.53
52745;BME280;38637;49.984;20.426;2023-03-25T00:42:08;98223.63;;;14.07;69.77
52745;BME280;38637;49.984;20.426;2023-03-25T00:44:35;98225.88;;;14.05;69.71
52745;BME280;38637;49.984;20.426;2023-03-25T00:47:00;98217.97;;;14.03;69.80
52745;BME280;38637;49.984;20.426;2023-03-25T00:49:26;98198.78;;;13.89;70.33
52745;BME280;38637;49.984;20.426;2023-03-25T00:51:53;98213.72;;;13.97;70.04
52745;BME280;38637;49.984;20.426;2023-03-25T00:54:18;98204.59;;;13.88;70.16
52745;BME280;38637;49.984;20.426;2023-03-25T00:56:46;98210.22;;;13.83;70.38
52745;BME280;38637;49.984;20.426;2023-03-25T00:59:12;98201.63;;;13.75;70.46
52745;BME280;38637;49.984;20.426;2023-03-25T01:01:37;98215.88;;;13.86;70.39
52745;BME280;38637;49.984;20.426;2023-03-25T01:04:04;98212.03;;;13.87;70.44
52745;BME280;38637;49.984;20.426;2023-03-25T01:06:36;98208.50;;;13.87;70.18
52745;BME280;38637;49.984;20.426;2023-03-25T01:09:05;98199.13;;;13.88;70.00
52745;BME280;38637;49.984;20.426;2023-03-25T01:11:32;98200.09;;;13.92;69.88
52745;BME280;38637;49.984;20.426;2023-03-25T01:13:59;98197.19;;;13.88;69.81
52745;BME280;38637;49.984;20.426;2023-03-25T01:16:25;98193.00;;;13.91;69.79
52745;BME280;38637;49.984;20.426;2023-03-25T01:18:51;98203.66;;;13.92;69.47
52745;BME280;38637;49.984;20.426;2023-03-25T01:21:16;98198.38;;;13.96;69.46
52745;BME280;38637;49.984;20.426;2023-03-25T01:23:42;98158.53;;;13.76;69.28
52745;BME280;38637;49.984;20.426;2023-03-25T01:26:08;98186.09;;;13.93;69.38
52745;BME280;38637;49.984;20.426;2023-03-25T01:28:33;98190.16;;;13.96;69.16
52745;BME280;38637;49.984;20.426;2023-03-25T01:31:03;98193.00;;;13.91;69.83
52745;BME280;38637;49.984;20.426;2023-03-25T01:33:29;98177.78;;;13.85;69.74
52745;BME280;38637;49.984;20.426;2023-03-25T01:35:54;98181.22;;;13.90;69.47
52745;BME280;38637;49.984;20.426;2023-03-25T01:38:20;98187.53;;;13.91;69.89
52745;BME280;38637;49.984;20.426;2023-03-25T01:40:45;98153.59;;;13.64;70.20
52745;BME280;38637;49.984;20.426;2023-03-25T01:43:11;98194.25;;;13.85;70.37
52745;BME280;38637;49.984;20.426;2023-03-25T01:45:37;98180.78;;;13.74;70.65
52745;BME280;38637;49.984;20.426;2023-03-25T01:48:16;98185.16;;;13.75;70.64
52745;BME280;38637;49.984;20.426;2023-03-25T01:50:47;98190.94;;;13.74;71.04
52745;BME280;38637;49.984;20.426;2023-03-25T01:53:16;98174.19;;;13.53;72.10
52745;BME280;38637;49.984;20.426;2023-03-25T01:55:42;98185.25;;;13.48;72.96
52745;BME280;38637;49.984;20.426;2023-03-25T01:58:11;98194.72;;;13.42;73.98
52745;BME280;38637;49.984;20.426;2023-03-25T02:00:41;98184.78;;;13.18;74.96
52745;BME280;38637;49.984;20.426;2023-03-25T02:03:08;98184.94;;;12.99;75.78
52745;BME280;38637;49.984;20.426;2023-03-25T02:05:47;98190.22;;;12.96;76.46
52745;BME280;38637;49.984;20.426;2023-03-25T02:08:17;98187.56;;;12.91;76.10
52745;BME280;38637;49.984;20.426;2023-03-25T02:10:46;98167.28;;;12.78;76.65
52745;BME280;38637;49.984;20.426;2023-03-25T02:13:12;98157.03;;;12.70;77.12
52745;BME280;38637;49.984;20.426;2023-03-25T02:15:46;98186.25;;;12.88;76.93
52745;BME280;38637;49.984;20.426;2023-03-25T02:18:29;98186.34;;;12.97;76.19
52745;BME280;38637;49.984;20.426;2023-03-25T02:24:15;98190.50;;;13.08;75.67
52745;BME280;38637;49.984;20.426;2023-03-25T02:27:10;98179.91;;;13.15;75.40
52745;BME280;38637;49.984;20.426;2023-03-25T02:40:50;98178.81;;;13.30;75.49
52745;BME280;38637;49.984;20.426;2023-03-25T02:43:31;98201.44;;;13.36;75.23
52745;BME280;38637;49.984;20.426;2023-03-25T02:46:00;98188.53;;;13.36;75.41
52745;BME280;38637;49.984;20.426;2023-03-25T02:48:32;98190.16;;;13.37;75.35
52745;BME280;38637;49.984;20.426;2023-03-25T02:51:03;98193.41;;;13.39;75.26
52745;BME280;38637;49.984;20.426;2023-03-25T02:53:33;98190.38;;;13.41;75.17
52745;BME280;38637;49.984;20.426;2023-03-25T02:56:03;98189.25;;;13.42;75.21
52745;BME280;38637;49.984;20.426;2023-03-25T02:58:33;98194.22;;;13.40;75.08
52745;BME280;38637;49.984;20.426;2023-03-25T03:00:59;98197.97;;;13.44;75.16
52745;BME280;38637;49.984;20.426;2023-03-25T03:03:26;98192.59;;;13.39;74.94
52745;BME280;38637;49.984;20.426;2023-03-25T03:05:54;98204.06;;;13.41;74.95
52745;BME280;38637;49.984;20.426;2023-03-25T03:10:55;98194.72;;;13.42;75.13
52745;BME280;38637;49.984;20.426;2023-03-25T03:16:13;98182.75;;;13.24;75.09
52745;BME280;38637;49.984;20.426;2023-03-25T03:21:17;98205.38;;;13.43;74.84
52745;BME280;38637;49.984;20.426;2023-03-25T03:29:10;98186.94;;;13.35;74.18
52745;BME280;38637;49.984;20.426;2023-03-25T03:31:43;98198.66;;;13.49;73.98
52745;BME280;38637;49.984;20.426;2023-03-25T03:34:20;98205.78;;;13.50;73.96
52745;BME280;38637;49.984;20.426;2023-03-25T03:36:50;98218.47;;;13.46;74.01
52745;BME280;38637;49.984;20.426;2023-03-25T03:39:22;98184.28;;;13.30;73.84
52745;BME280;38637;49.984;20.426;2023-03-25T03:41:53;98220.91;;;13.48;73.91
52745;BME280;38637;49.984;20.426;2023-03-25T03:44:24;98212.31;;;13.41;73.94
52745;BME280;38637;49.984;20.426;2023-03-25T03:46:59;98202.75;;;13.38;74.06
52745;BME280;38637;49.984;20.426;2023-03-25T03:49:28;98229.94;;;13.48;73.95
52745;BME280;38637;49.984;20.426;2023-03-25T03:52:02;98222.66;;;13.44;74.46
52745;BME280;38637;49.984;20.426;2023-03-25T03:54:37;98218.41;;;13.38;75.40
52745;BME280;38637;49.984;20.426;2023-03-25T03:57:27;98218.69;;;13.36;75.33
52745;BME280;38637;49.984;20.426;2023-03-25T04:00:15;98231.78;;;13.39;76.21
52745;BME280;38637;49.984;20.426;2023-03-25T04:02:45;98230.28;;;13.33;76.49
52745;BME280;38637;49.984;20.426;2023-03-25T04:05:15;98224.28;;;13.17;76.95
52745;BME280;38637;49.984;20.426;2023-03-25T04:07:59;98243.00;;;13.29;78.24
52745;BME280;38637;49.984;20.426;2023-03-25T04:10:33;98242.81;;;13.25;78.25
52745;BME280;38637;49.984;20.426;2023-03-25T04:13:07;98212.00;;;13.01;79.04
52745;BME280;38637;49.984;20.426;2023-03-25T04:15:34;98225.41;;;13.02;79.42
52745;BME280;38637;49.984;20.426;2023-03-25T04:17:59;98251.38;;;13.19;79.83
52745;BME280;38637;49.984;20.426;2023-03-25T04:20:26;98259.41;;;13.15;80.85
52745;BME280;38637;49.984;20.426;2023-03-25T04:22:54;98254.63;;;13.07;80.80
52745;BME280;38637;49.984;20.426;2023-03-25T04:25:19;98260.03;;;13.12;80.56
52745;BME280;38637;49.984;20.426;2023-03-25T04:27:46;98257.59;;;13.10;80.43
52745;BME280;38637;49.984;20.426;2023-03-25T04:30:14;98263.38;;;13.09;80.60
52745;BME280;38637;49.984;20.426;2023-03-25T04:32:42;98241.53;;;13.04;81.04
52745;BME280;38637;49.984;20.426;2023-03-25T04:35:12;98250.59;;;13.04;81.67
52745;BME280;38637;49.984;20.426;2023-03-25T04:37:37;98239.13;;;12.88;81.46
52745;BME280;38637;49.984;20.426;2023-03-25T04:40:03;98268.34;;;13.07;81.99
52745;BME280;38637;49.984;20.426;2023-03-25T04:42:31;98257.19;;;13.03;81.89
52745;BME280;38637;49.984;20.426;2023-03-25T04:45:05;98246.13;;;12.95;81.97
52745;BME280;38637;49.984;20.426;2023-03-25T04:47:31;98265.81;;;12.97;82.17
52745;BME280;38637;49.984;20.426;2023-03-25T04:49:57;98272.72;;;13.08;82.18
52745;BME280;38637;49.984;20.426;2023-03-25T04:52:22;98277.59;;;13.11;82.42
52745;BME280;38637;49.984;20.426;2023-03-25T04:54:47;98277.06;;;13.09;82.57
52745;BME280;38637;49.984;20.426;2023-03-25T04:57:13;98258.00;;;12.90;82.54
52745;BME280;38637;49.984;20.426;2023-03-25T04:59:39;98285.63;;;13.07;82.61
52745;BME280;38637;49.984;20.426;2023-03-25T05:02:05;98290.78;;;13.09;82.75
52745;BME280;38637;49.984;20.426;2023-03-25T05:04:31;98265.53;;;12.98;82.86
52745;BME280;38637;49.984;20.426;2023-03-25T05:06:57;98264.19;;;12.96;82.88
52745;BME280;38637;49.984;20.426;2023-03-25T05:09:22;98277.28;;;12.99;82.96
52745;BME280;38637;49.984;20.426;2023-03-25T05:11:49;98293.31;;;13.05;82.94
52745;BME280;38637;49.984;20.426;2023-03-25T05:14:17;98289.25;;;13.03;82.96
52745;BME280;38637;49.984;20.426;2023-03-25T05:16:44;98266.63;;;12.83;83.14
52745;BME280;38637;49.984;20.426;2023-03-25T05:19:10;98309.25;;;13.03;83.06
52745;BME280;38637;49.984;20.426;2023-03-25T05:21:37;98308.53;;;12.98;83.86
52745;BME280;38637;49.984;20.426;2023-03-25T05:24:03;98311.88;;;12.95;83.46
52745;BME280;38637;49.984;20.426;2023-03-25T05:26:33;98315.44;;;12.81;79.19
52745;BME280;38637;49.984;20.426;2023-03-25T05:29:10;98315.91;;;12.70;75.38
52745;BME280;38637;49.984;20.426;2023-03-25T05:31:41;98302.06;;;12.47;74.23
52745;BME280;38637;49.984;20.426;2023-03-25T05:34:09;98319.31;;;12.48;71.79
52745;BME280;38637;49.984;20.426;2023-03-25T05:36:34;98314.16;;;12.46;73.04
52745;BME280;38637;49.984;20.426;2023-03-25T05:39:00;98319.31;;;12.48;73.06
52745;BME280;38637;49.984;20.426;2023-03-25T05:41:27;98324.56;;;12.44;72.58
52745;BME280;38637;49.984;20.426;2023-03-25T05:44:03;98323.56;;;12.40;72.70
52745;BME280;38637;49.984;20.426;2023-03-25T05:46:29;98289.19;;;12.15;72.82
52745;BME280;38637;49.984;20.426;2023-03-25T05:48:54;98297.69;;;12.13;72.38
52745;BME280;38637;49.984;20.426;2023-03-25T05:51:21;98323.88;;;12.19;72.82
52745;BME280;38637;49.984;20.426;2023-03-25T05:53:47;98331.28;;;12.19;73.29
52745;BME280;38637;49.984;20.426;2023-03-25T05:56:17;98334.03;;;12.19;73.46
52745;BME280;38637;49.984;20.426;2023-03-25T05:58:44;98329.03;;;12.21;73.59
52745;BME280;38637;49.984;20.426;2023-03-25T06:01:10;98307.31;;;12.11;73.57
52745;BME280;38637;49.984;20.426;2023-03-25T06:03:40;98339.25;;;12.34;73.83
52745;BME280;38637;49.984;20.426;2023-03-25T06:06:09;98344.72;;;12.34;74.15
52745;BME280;38637;49.984;20.426;2023-03-25T06:08:45;98348.06;;;12.31;74.47
52745;BME280;38637;49.984;20.426;2023-03-25T06:11:11;98340.81;;;12.22;74.58
52745;BME280;38637;49.984;20.426;2023-03-25T06:13:40;98345.38;;;12.26;74.72
52745;BME280;38637;49.984;20.426;2023-03-25T06:16:07;98352.00;;;12.25;74.45
52745;BME280;38637;49.984;20.426;2023-03-25T06:18:33;98349.75;;;12.27;75.13
52745;BME280;38637;49.984;20.426;2023-03-25T06:20:58;98353.81;;;12.30;75.08
52745;BME280;38637;49.984;20.426;2023-03-25T06:23:24;98364.47;;;12.31;75.51
52745;BME280;38637;49.984;20.426;2023-03-25T06:25:51;98361.75;;;12.31;77.34
52745;BME280;38637;49.984;20.426;2023-03-25T06:28:16;98365.88;;;12.29;76.74
52745;BME280;38637;49.984;20.426;2023-03-25T06:30:45;98367.81;;;12.28;77.38
52745;BME280;38637;49.984;20.426;2023-03-25T06:33:11;98381.19;;;12.30;76.96
52745;BME280;38637;49.984;20.426;2023-03-25T06:35:38;98377.47;;;12.39;77.14
52745;BME280;38637;49.984;20.426;2023-03-25T06:38:03;98380.06;;;12.50;77.32
52745;BME280;38637;49.984;20.426;2023-03-25T06:40:29;98389.44;;;12.62;76.88
52745;BME280;38637;49.984;20.426;2023-03-25T06:42:54;98349.94;;;12.50;77.40
52745;BME280;38637;49.984;20.426;2023-03-25T06:45:19;98344.59;;;12.58;77.01
52745;BME280;38637;49.984;20.426;2023-03-25T06:47:45;98388.91;;;12.93;76.78
52745;BME280;38637;49.984;20.426;2023-03-25T06:50:10;98375.53;;;13.05;76.22
52745;BME280;38637;49.984;20.426;2023-03-25T06:52:35;98346.69;;;12.94;76.17
52745;BME280;38637;49.984;20.426;2023-03-25T06:55:01;98375.34;;;13.16;75.69
52745;BME280;38637;49.984;20.426;2023-03-25T06:57:26;98370.09;;;13.19;75.54
52745;BME280;38637;49.984;20.426;2023-03-25T06:59:52;98386.38;;;13.29;75.04
52745;BME280;38637;49.984;20.426;2023-03-25T07:02:17;98372.72;;;13.24;75.19
52745;BME280;38637;49.984;20.426;2023-03-25T07:04:42;98362.69;;;13.20;74.55
52745;BME280;38637;49.984;20.426;2023-03-25T07:07:08;98372.84;;;13.19;74.03
52745;BME280;38637;49.984;20.426;2023-03-25T07:09:33;98361.34;;;13.17;73.79
52745;BME280;38637;49.984;20.426;2023-03-25T07:12:00;98373.84;;;13.23;73.35
52745;BME280;38637;49.984;20.426;2023-03-25T07:14:25;98363.38;;;13.11;73.40
52745;BME280;38637;49.984;20.426;2023-03-25T07:16:50;98387.38;;;13.33;72.86
52745;BME280;38637;49.984;20.426;2023-03-25T07:19:16;98352.13;;;13.13;72.67
52745;BME280;38637;49.984;20.426;2023-03-25T07:21:41;98372.50;;;13.21;72.54
52745;BME280;38637;49.984;20.426;2023-03-25T07:24:06;98358.09;;;13.15;72.32
52745;BME280;38637;49.984;20.426;2023-03-25T07:26:32;98374.41;;;13.25;72.41
52745;BME280;38637;49.984;20.426;2023-03-25T07:28:57;98323.97;;;12.94;72.13
52745;BME280;38637;49.984;20.426;2023-03-25T07:31:23;98376.06;;;13.21;72.38
52745;BME280;38637;49.984;20.426;2023-03-25T07:33:48;98349.16;;;13.09;72.38
52745;BME280;38637;49.984;20.426;2023-03-25T07:36:15;98356.06;;;13.21;72.15
52745;BME280;38637;49.984;20.426;2023-03-25T07:38:40;98352.19;;;13.22;72.12
52745;BME280;38637;49.984;20.426;2023-03-25T07:41:07;98349.56;;;13.17;72.01
52745;BME280;38637;49.984;20.426;2023-03-25T07:43:33;98384.34;;;13.35;71.94
52745;BME280;38637;49.984;20.426;2023-03-25T07:45:58;98369.09;;;13.29;72.41
52745;BME280;38637;49.984;20.426;2023-03-25T07:48:23;98368.34;;;13.23;72.35
52745;BME280;38637;49.984;20.426;2023-03-25T07:50:50;98386.97;;;13.40;72.57
52745;BME280;38637;49.984;20.426;2023-03-25T07:53:16;98378.97;;;13.44;72.39
52745;BME280;38637;49.984;20.426;2023-03-25T07:55:41;98361.59;;;13.35;72.47
52745;BME280;38637;49.984;20.426;2023-03-25T07:58:07;98379.78;;;13.44;72.61
52745;BME280;38637;49.984;20.426;2023-03-25T08:00:32;98342.06;;;13.22;72.80
52745;BME280;38637;49.984;20.426;2023-03-25T08:02:57;98364.75;;;13.42;72.57
52745;BME280;38637;49.984;20.426;2023-03-25T08:05:23;98350.84;;;13.38;72.21
52745;BME280;38637;49.984;20.426;2023-03-25T08:07:50;98377.91;;;13.67;71.88
52745;BME280;38637;49.984;20.426;2023-03-25T08:10:16;98388.81;;;13.72;71.63
52745;BME280;38637;49.984;20.426;2023-03-25T08:12:42;98374.38;;;13.81;71.41
52745;BME280;38637;49.984;20.426;2023-03-25T08:15:08;98354.03;;;13.82;71.09
52745;BME280;38637;49.984;20.426;2023-03-25T08:17:34;98362.66;;;13.89;70.59
52745;BME280;38637;49.984;20.426;2023-03-25T08:19:59;98352.81;;;13.88;70.18
52745;BME280;38637;49.984;20.426;2023-03-25T08:22:25;98377.72;;;14.14;69.77
52745;BME280;38637;49.984;20.426;2023-03-25T08:24:51;98377.69;;;14.28;69.49
52745;BME280;38637;49.984;20.426;2023-03-25T08:27:16;98368.91;;;14.39;69.24
52745;BME280;38637;49.984;20.426;2023-03-25T08:29:42;98349.19;;;14.37;68.55
52745;BME280;38637;49.984;20.426;2023-03-25T08:32:08;98383.88;;;14.69;67.62
52745;BME280;38637;49.984;20.426;2023-03-25T08:34:33;98373.81;;;14.65;66.66
52745;BME280;38637;49.984;20.426;2023-03-25T08:37:04;98347.91;;;14.57;67.16
52745;BME280;38637;49.984;20.426;2023-03-25T08:39:29;98369.28;;;14.91;66.89
52745;BME280;38637;49.984;20.426;2023-03-25T08:42:05;98357.22;;;15.01;66.09
52745;BME280;38637;49.984;20.426;2023-03-25T08:44:30;98376.34;;;15.15;65.54
52745;BME280;38637;49.984;20.426;2023-03-25T08:46:55;98360.06;;;15.19;65.10
52745;BME280;38637;49.984;20.426;2023-03-25T08:49:21;98382.97;;;15.45;64.97
52745;BME280;38637;49.984;20.426;2023-03-25T08:51:46;98367.47;;;15.49;64.60
52745;BME280;38637;49.984;20.426;2023-03-25T08:54:11;98369.41;;;15.57;64.05
52745;BME280;38637;49.984;20.426;2023-03-25T08:56:37;98376.38;;;15.63;63.53
52745;BME280;38637;49.984;20.426;2023-03-25T08:59:02;98362.81;;;15.67;63.40
52745;BME280;38637;49.984;20.426;2023-03-25T09:01:27;98384.59;;;15.86;63.16
52745;BME280;38637;49.984;20.426;2023-03-25T09:03:53;98367.25;;;15.94;63.02
52745;BME280;38637;49.984;20.426;2023-03-25T09:06:19;98368.25;;;15.98;62.00
52745;BME280;38637;49.984;20.426;2023-03-25T09:08:45;98363.72;;;16.02;62.38
52745;BME280;38637;49.984;20.426;2023-03-25T09:11:10;98327.41;;;16.00;62.37
52745;BME280;38637;49.984;20.426;2023-03-25T09:13:36;98374.09;;;16.40;61.95
52745;BME280;38637;49.984;20.426;2023-03-25T09:16:02;98335.84;;;16.21;61.30
52745;BME280;38637;49.984;20.426;2023-03-25T09:18:27;98368.91;;;16.56;61.25
52745;BME280;38637;49.984;20.426;2023-03-25T09:20:59;98361.63;;;16.43;60.46
52745;BME280;38637;49.984;20.426;2023-03-25T09:23:25;98364.88;;;16.45;60.51
52745;BME280;38637;49.984;20.426;2023-03-25T09:25:51;98341.84;;;16.32;60.50
52745;BME280;38637;49.984;20.426;2023-03-25T09:28:16;98346.88;;;16.30;60.41
52745;BME280;38637;49.984;20.426;2023-03-25T09:30:41;98349.13;;;16.37;59.95
52745;BME280;38637;49.984;20.426;2023-03-25T09:33:07;98355.94;;;16.30;59.55
52745;BME280;38637;49.984;20.426;2023-03-25T09:35:32;98328.56;;;16.25;59.68
52745;BME280;38637;49.984;20.426;2023-03-25T09:37:57;98317.06;;;16.23;59.60
52745;BME280;38637;49.984;20.426;2023-03-25T09:40:23;98337.16;;;16.24;59.86
52745;BME280;38637;49.984;20.426;2023-03-25T09:45:31;98336.50;;;16.18;60.21
52745;BME280;38637;49.984;20.426;2023-03-25T09:48:10;98327.75;;;16.25;60.47
52745;BME280;38637;49.984;20.426;2023-03-25T09:50:40;98316.41;;;16.18;61.45
52745;BME280;38637;49.984;20.426;2023-03-25T09:53:37;98319.97;;;16.18;61.92
52745;BME280;38637;49.984;20.426;2023-03-25T09:56:11;98301.69;;;16.22;61.86
52745;BME280;38637;49.984;20.426;2023-03-25T09:58:43;98305.03;;;16.54;61.03
52745;BME280;38637;49.984;20.426;2023-03-25T10:01:45;98293.66;;;16.82;60.29
52745;BME280;38637;49.984;20.426;2023-03-25T10:10:20;98285.47;;;17.03;56.25
52745;BME280;38637;49.984;20.426;2023-03-25T10:12:57;98304.44;;;17.04;55.09
52745;BME280;38637;49.984;20.426;2023-03-25T10:16:12;98299.97;;;16.73;55.11
52745;BME280;38637;49.984;20.426;2023-03-25T10:18:57;98294.44;;;16.73;56.00
52745;BME280;38637;49.984;20.426;2023-03-25T10:24:27;98281.44;;;16.91;55.86
52745;BME280;38637;49.984;20.426;2023-03-25T10:26:59;98281.25;;;17.05;55.19
52745;BME280;38637;49.984;20.426;2023-03-25T10:29:32;98282.81;;;17.44;54.51
52745;BME280;38637;49.984;20.426;2023-03-25T10:32:02;98243.03;;;17.45;53.21
52745;BME280;38637;49.984;20.426;2023-03-25T10:34:38;98258.34;;;17.64;52.39
52745;BME280;38637;49.984;20.426;2023-03-25T10:37:09;98245.75;;;17.96;51.80
52745;BME280;38637;49.984;20.426;2023-03-25T10:39:40;98261.00;;;18.35;51.64
52745;BME280;38637;49.984;20.426;2023-03-25T10:42:31;98234.53;;;18.34;50.81
52745;BME280;38637;49.984;20.426;2023-03-25T10:44:59;98228.81;;;18.40;50.65
52745;BME280;38637;49.984;20.426;2023-03-25T10:47:29;98260.72;;;18.82;49.46
52745;BME280;38637;49.984;20.426;2023-03-25T10:49:56;98242.97;;;18.83;49.50
52745;BME280;38637;49.984;20.426;2023-03-25T10:52:23;98239.28;;;18.79;48.38
52745;BME280;38637;49.984;20.426;2023-03-25T10:54:52;98227.97;;;18.85;48.33
52745;BME280;38637;49.984;20.426;2023-03-25T10:57:29;98238.72;;;19.11;48.37
52745;BME280;38637;49.984;20.426;2023-03-25T11:02:28;98245.16;;;19.15;47.82
52745;BME280;38637;49.984;20.426;2023-03-25T11:05:04;98190.28;;;18.80;46.29
52745;BME280;38637;49.984;20.426;2023-03-25T11:07:34;98206.50;;;18.69;47.01
52745;BME280;38637;49.984;20.426;2023-03-25T11:12:34;98216.22;;;19.00;47.09
52745;BME280;38637;49.984;20.426;2023-03-25T11:15:00;98206.66;;;18.85;46.98
52745;BME280;38637;49.984;20.426;2023-03-25T11:17:27;98208.09;;;18.58;46.08
52745;BME280;38637;49.984;20.426;2023-03-25T11:19:58;98213.06;;;18.65;45.53
52745;BME280;38637;49.984;20.426;2023-03-25T11:22:29;98179.94;;;18.31;43.51
52745;BME280;38637;49.984;20.426;2023-03-25T11:25:02;98191.22;;;18.38;44.77
52745;BME280;38637;49.984;20.426;2023-03-25T11:27:28;98195.47;;;18.36;43.90
52745;BME280;38637;49.984;20.426;2023-03-25T11:30:04;98182.50;;;18.36;44.53
52745;BME280;38637;49.984;20.426;2023-03-25T11:32:35;98186.38;;;18.35;42.86
52745;BME280;38637;49.984;20.426;2023-03-25T11:35:06;98183.03;;;18.30;42.93
52745;BME280;38637;49.984;20.426;2023-03-25T11:37:42;98181.22;;;18.01;43.57
52745;BME280;38637;49.984;20.426;2023-03-25T11:40:14;98190.53;;;17.54;44.05
52745;BME280;38637;49.984;20.426;2023-03-25T11:42:42;98185.25;;;17.19;43.84
52745;BME280;38637;49.984;20.426;2023-03-25T11:45:35;98184.09;;;16.99;43.96
52745;BME280;38637;49.984;20.426;2023-03-25T11:48:17;98178.53;;;16.70;43.82
52745;BME280;38637;49.984;20.426;2023-03-25T11:50:53;98163.44;;;16.38;43.99
52745;BME280;38637;49.984;20.426;2023-03-25T11:53:20;98133.69;;;16.14;44.99
52745;BME280;38637;49.984;20.426;2023-03-25T11:55:55;98156.34;;;16.19;44.53
52745;BME280;38637;49.984;20.426;2023-03-25T11:58:25;98149.03;;;16.23;45.95
52745;BME280;38637;49.984;20.426;2023-03-25T12:01:01;98161.88;;;16.58;45.89
52745;BME280;38637;49.984;20.426;2023-03-25T12:03:27;98150.31;;;16.64;43.54
52745;BME280;38637;49.984;20.426;2023-03-25T12:08:28;98151.03;;;17.20;41.94
52745;BME280;38637;49.984;20.426;2023-03-25T12:10:59;98166.38;;;17.51;41.81
52745;BME280;38637;49.984;20.426;2023-03-25T12:27:35;98139.97;;;17.62;41.74
52745;BME280;38637;49.984;20.426;2023-03-25T12:30:28;98146.03;;;17.56;42.38
52745;BME280;38637;49.984;20.426;2023-03-25T12:35:40;98135.25;;;17.63;39.80
52745;BME280;38637;49.984;20.426;2023-03-25T12:46:28;98136.47;;;18.07;36.89
52745;BME280;38637;49.984;20.426;2023-03-25T12:49:21;98145.53;;;17.96;35.85
52745;BME280;38637;49.984;20.426;2023-03-25T12:52:53;98160.00;;;17.92;39.69
52745;BME280;38637;49.984;20.426;2023-03-25T12:58:18;98176.41;;;16.75;46.83
52745;BME280;38637;49.984;20.426;2023-03-25T13:00:58;98157.19;;;15.94;49.05
52745;BME280;38637;49.984;20.426;2023-03-25T13:03:55;98173.19;;;16.18;49.99
52745;BME280;38637;49.984;20.426;2023-03-25T13:06:58;98183.44;;;16.00;50.86
52745;BME280;38637;49.984;20.426;2023-03-25T13:09:51;98184.28;;;15.83;50.84
52745;BME280;38637;49.984;20.426;2023-03-25T13:12:28;98185.88;;;15.84;51.94
52745;BME280;38637;49.984;20.426;2023-03-25T13:17:38;98178.78;;;15.83;50.72
52745;BME280;38637;49.984;20.426;2023-03-25T13:20:06;98183.78;;;15.98;51.65
52745;BME280;38637;49.984;20.426;2023-03-25T13:22:41;98162.06;;;15.88;50.50
52745;BME280;38637;49.984;20.426;2023-03-25T13:25:34;98171.31;;;15.92;49.40
52745;BME280;38637;49.984;20.426;2023-03-25T13:28:11;98179.72;;;15.78;48.85
52745;BME280;38637;49.984;20.426;2023-03-25T13:30:39;98178.72;;;15.57;48.69
52745;BME280;38637;49.984;20.426;2023-03-25T13:33:12;98162.06;;;15.45;49.00
52745;BME280;38637;49.984;20.426;2023-03-25T13:38:14;98166.09;;;15.38;50.07
52745;BME280;38637;49.984;20.426;2023-03-25T13:41:11;98185.69;;;15.54;49.43
52745;BME280;38637;49.984;20.426;2023-03-25T13:46:42;98189.25;;;15.46;48.62
52745;BME280;38637;49.984;20.426;2023-03-25T13:49:20;98193.16;;;15.62;47.47
52745;BME280;38637;49.984;20.426;2023-03-25T13:51:48;98198.19;;;15.78;45.87
52745;BME280;38637;49.984;20.426;2023-03-25T13:57:15;98156.06;;;15.43;44.65
52745;BME280;38637;49.984;20.426;2023-03-25T14:08:47;98189.91;;;15.43;44.71
52745;BME280;38637;49.984;20.426;2023-03-25T14:11:54;98199.81;;;15.79;45.57
52745;BME280;38637;49.984;20.426;2023-03-25T14:14:22;98180.53;;;15.96;45.64
52745;BME280;38637;49.984;20.426;2023-03-25T14:16:51;98203.47;;;16.26;46.36
52745;BME280;38637;49.984;20.426;2023-03-25T14:19:29;98212.84;;;16.34;45.55
52745;BME280;38637;49.984;20.426;2023-03-25T14:21:55;98186.13;;;16.35;46.84
52745;BME280;38637;49.984;20.426;2023-03-25T14:24:27;98197.44;;;16.42;47.49
52745;BME280;38637;49.984;20.426;2023-03-25T14:27:00;98175.97;;;16.09;47.22
52745;BME280;38637;49.984;20.426;2023-03-25T14:29:40;98204.28;;;16.18;47.69
52745;BME280;38637;49.984;20.426;2023-03-25T14:34:38;98203.38;;;15.79;47.62
52745;BME280;38637;49.984;20.426;2023-03-25T14:44:30;98200.09;;;15.34;48.79
52745;BME280;38637;49.984;20.426;2023-03-25T14:49:53;98183.25;;;15.27;49.14
52745;BME280;38637;49.984;20.426;2023-03-25T14:52:28;98177.41;;;15.20;48.95